sensor_id;sensor_type;location;lat;lon;timestamp;pressure;altitude;pressure_sealevel;temperature;humidity
56604;BME280;42486;47.478;19.036;2023-06-22T00:01:25;100460.34;;;20.87;100.00
56604;BME280;42486;47.478;19.036;2023-06-22T00:04:30;100449.12;;;20.77;100.00
56604;BME280;42486;47.478;19.036;2023-06-22T00:07:34;100456.63;;;20.73;100.00
56604;BME280;42486;47.478;19.036;2023-06-22T00:10:37;100457.78;;;20.71;100.00
56604;BME280;42486;47.478;19.036;2023-06-22T00:13:42;100456.50;;;20.66;100.00
56604;BME280;42486;47.478;19.036;2023-06-22T00:16:50;100463.63;;;20.66;100.00
56604;BME280;42486;47.478;19.036;2023-06-22T00:20:02;100456.50;;;20.66;100.00
56604;BME280;42486;47.478;19.036;2023-06-22T00:23:08;100455.53;;;20.82;100.00
56604;BME280;42486;47.478;19.036;2023-06-22T00:26:12;100468.59;;;20.69;100.00
56604;BME280;42486;47.478;19.036;2023-06-22T00:29:18;100461.22;;;20.56;100.00
56604;BME280;42486;47.478;19.036;2023-06-22T00:32:21;100472.78;;;20.63;100.00
56604;BME280;42486;47.478;19.036;2023-06-22T00:35:26;100474.13;;;20.59;100.00
56604;BME280;42486;47.478;19.036;2023-06-22T00:38:32;100474.31;;;20.58;100.00
56604;BME280;42486;47.478;19.036;2023-06-22T00:41:38;100474.81;;;20.53;100.00
56604;BME280;42486;47.478;19.036;2023-06-22T00:44:42;100476.28;;;20.56;100.00
56604;BME280;42486;47.478;19.036;2023-06-22T00:47:45;100479.19;;;20.69;100.00
56604;BME280;42486;47.478;19.036;2023-06-22T00:50:49;100470.97;;;20.64;100.00
56604;BME280;42486;47.478;19.036;2023-06-22T00:54:05;100471.13;;;20.62;100.00
56604;BME280;42486;47.478;19.036;2023-06-22T00:57:09;100465.06;;;20.54;100.00
56604;BME280;42486;47.478;19.036;2023-06-22T01:00:14;100463.41;;;20.44;100.00
56604;BME280;42486;47.478;19.036;2023-06-22T01:03:24;100447.81;;;20.41;100.00
56604;BME280;42486;47.478;19.036;2023-06-22T01:06:32;100455.97;;;20.40;100.00
56604;BME280;42486;47.478;19.036;2023-06-22T01:12:52;100461.03;;;20.50;100.00
56604;BME280;42486;47.478;19.036;2023-06-22T01:16:00;100462.72;;;20.51;100.00
56604;BME280;42486;47.478;19.036;2023-06-22T01:19:10;100465.38;;;20.51;100.00
56604;BME280;42486;47.478;19.036;2023-06-22T01:22:17;100450.78;;;20.46;100.00
56604;BME280;42486;47.478;19.036;2023-06-22T01:25:28;100454.91;;;20.49;100.00
56604;BME280;42486;47.478;19.036;2023-06-22T01:28:48;100459.41;;;20.49;100.00
56604;BME280;42486;47.478;19.036;2023-06-22T01:31:54;100456.75;;;20.49;100.00
56604;BME280;42486;47.478;19.036;2023-06-22T01:35:00;100456.25;;;20.45;100.00
56604;BME280;42486;47.478;19.036;2023-06-22T01:38:03;100449.00;;;20.39;100.00
56604;BME280;42486;47.478;19.036;2023-06-22T01:41:09;100441.84;;;20.39;100.00
56604;BME280;42486;47.478;19.036;2023-06-22T01:44:13;100458.13;;;20.36;100.00
56604;BME280;42486;47.478;19.036;2023-06-22T01:47:19;100457.81;;;20.31;100.00
56604;BME280;42486;47.478;19.036;2023-06-22T01:50:23;100451.38;;;20.26;100.00
56604;BME280;42486;47.478;19.036;2023-06-22T01:53:26;100451.75;;;20.22;100.00
56604;BME280;42486;47.478;19.036;2023-06-22T01:56:30;100452.75;;;20.21;100.00
56604;BME280;42486;47.478;19.036;2023-06-22T01:59:39;100453.25;;;20.17;100.00
56604;BME280;42486;47.478;19.036;2023-06-22T02:05:54;100453.13;;;20.10;100.00
56604;BME280;42486;47.478;19.036;2023-06-22T02:09:02;100459.75;;;20.14;100.00
56604;BME280;42486;47.478;19.036;2023-06-22T02:12:06;100465.72;;;20.16;100.00
56604;BME280;42486;47.478;19.036;2023-06-22T02:15:11;100460.75;;;20.13;100.00
56604;BME280;42486;47.478;19.036;2023-06-22T02:18:16;100453.06;;;20.18;100.00
56604;BME280;42486;47.478;19.036;2023-06-22T02:21:20;100462.34;;;20.22;100.00
56604;BME280;42486;47.478;19.036;2023-06-22T02:24:23;100464.84;;;20.24;100.00
56604;BME280;42486;47.478;19.036;2023-06-22T02:27:27;100466.12;;;20.28;100.00
56604;BME280;42486;47.478;19.036;2023-06-22T02:30:31;100477.47;;;20.22;100.00
56604;BME280;42486;47.478;19.036;2023-06-22T02:33:35;100481.03;;;20.29;100.00
56604;BME280;42486;47.478;19.036;2023-06-22T02:36:42;100482.22;;;20.35;100.00
56604;BME280;42486;47.478;19.036;2023-06-22T02:39:53;100481.50;;;20.41;100.00
56604;BME280;42486;47.478;19.036;2023-06-22T02:42:59;100481.97;;;20.44;100.00
56604;BME280;42486;47.478;19.036;2023-06-22T02:46:05;100481.50;;;20.41;100.00
56604;BME280;42486;47.478;19.036;2023-06-22T02:49:08;100480.81;;;20.47;100.00
56604;BME280;42486;47.478;19.036;2023-06-22T02:52:11;100487.09;;;20.54;100.00
56604;BME280;42486;47.478;19.036;2023-06-22T02:55:15;100481.97;;;20.44;100.00
56604;BME280;42486;47.478;19.036;2023-06-22T02:58:17;100487.81;;;20.40;100.00
56604;BME280;42486;47.478;19.036;2023-06-22T03:01:22;100481.19;;;20.36;100.00
56604;BME280;42486;47.478;19.036;2023-06-22T03:04:27;100477.87;;;20.34;100.00
56604;BME280;42486;47.478;19.036;2023-06-22T03:07:31;100474.56;;;20.32;100.00
56604;BME280;42486;47.478;19.036;2023-06-22T03:10:34;100479.41;;;20.28;100.00
56604;BME280;42486;47.478;19.036;2023-06-22T03:13:38;100486.72;;;20.26;100.00
56604;BME280;42486;47.478;19.036;2023-06-22T03:16:40;100485.41;;;20.22;100.00
56604;BME280;42486;47.478;19.036;2023-06-22T03:19:43;100489.75;;;20.15;100.00
56604;BME280;42486;47.478;19.036;2023-06-22T03:22:47;100489.25;;;20.19;100.00
56604;BME280;42486;47.478;19.036;2023-06-22T03:25:50;100487.25;;;20.21;100.00
56604;BME280;42486;47.478;19.036;2023-06-22T03:28:53;100479.59;;;20.27;100.00
56604;BME280;42486;47.478;19.036;2023-06-22T03:31:56;100489.00;;;20.29;100.00
56604;BME280;42486;47.478;19.036;2023-06-22T03:35:01;100492.69;;;20.28;100.00
56604;BME280;42486;47.478;19.036;2023-06-22T03:38:04;100485.88;;;20.26;100.00
56604;BME280;42486;47.478;19.036;2023-06-22T03:41:10;100486.72;;;20.26;100.00
56604;BME280;42486;47.478;19.036;2023-06-22T03:44:13;100477.75;;;20.27;100.00
56604;BME280;42486;47.478;19.036;2023-06-22T03:47:17;100482.72;;;20.30;100.00
56604;BME280;42486;47.478;19.036;2023-06-22T03:50:20;100483.19;;;20.34;100.00
56604;BME280;42486;47.478;19.036;2023-06-22T03:53:23;100478.38;;;20.37;100.00
56604;BME280;42486;47.478;19.036;2023-06-22T03:56:25;100484.87;;;20.35;100.00
56604;BME280;42486;47.478;19.036;2023-06-22T03:59:31;100493.28;;;20.38;100.00
56604;BME280;42486;47.478;19.036;2023-06-22T04:02:35;100488.28;;;20.43;100.00
56604;BME280;42486;47.478;19.036;2023-06-22T04:05:40;100485.75;;;20.50;100.00
56604;BME280;42486;47.478;19.036;2023-06-22T04:08:48;100502.34;;;20.52;100.00
56604;BME280;42486;47.478;19.036;2023-06-22T04:11:54;100501.50;;;20.60;100.00
56604;BME280;42486;47.478;19.036;2023-06-22T04:15:00;100499.00;;;20.58;100.00
56604;BME280;42486;47.478;19.036;2023-06-22T04:18:03;100498.16;;;20.66;100.00
56604;BME280;42486;47.478;19.036;2023-06-22T04:21:08;100498.59;;;20.78;100.00
56604;BME280;42486;47.478;19.036;2023-06-22T04:24:13;100504.00;;;20.84;100.00
56604;BME280;42486;47.478;19.036;2023-06-22T04:27:16;100509.09;;;20.94;100.00
56604;BME280;42486;47.478;19.036;2023-06-22T04:30:21;100504.75;;;21.01;100.00
56604;BME280;42486;47.478;19.036;2023-06-22T04:33:25;100507.34;;;21.09;100.00
56604;BME280;42486;47.478;19.036;2023-06-22T04:36:28;100504.91;;;21.23;100.00
56604;BME280;42486;47.478;19.036;2023-06-22T04:39:37;100516.25;;;21.40;100.00
56604;BME280;42486;47.478;19.036;2023-06-22T04:42:44;100515.44;;;21.54;100.00
56604;BME280;42486;47.478;19.036;2023-06-22T04:45:55;100514.81;;;21.52;100.00
56604;BME280;42486;47.478;19.036;2023-06-22T04:48:58;100520.31;;;21.50;100.00
56604;BME280;42486;47.478;19.036;2023-06-22T04:52:05;100530.78;;;21.67;100.00
56604;BME280;42486;47.478;19.036;2023-06-22T04:58:15;100524.00;;;21.94;100.00
56604;BME280;42486;47.478;19.036;2023-06-22T05:01:20;100531.47;;;22.13;100.00
56604;BME280;42486;47.478;19.036;2023-06-22T05:04:24;100536.59;;;22.15;100.00
56604;BME280;42486;47.478;19.036;2023-06-22T05:07:27;100535.41;;;22.17;100.00
56604;BME280;42486;47.478;19.036;2023-06-22T05:10:30;100540.00;;;22.09;100.00
56604;BME280;42486;47.478;19.036;2023-06-22T05:13:34;100541.91;;;22.15;100.00
56604;BME280;42486;47.478;19.036;2023-06-22T05:16:37;100542.69;;;22.24;100.00
56604;BME280;42486;47.478;19.036;2023-06-22T05:19:42;100539.47;;;22.28;100.00
56604;BME280;42486;47.478;19.036;2023-06-22T05:22:47;100552.22;;;22.33;100.00
56604;BME280;42486;47.478;19.036;2023-06-22T05:25:50;100555.44;;;22.43;100.00
56604;BME280;42486;47.478;19.036;2023-06-22T05:28:58;100557.59;;;22.54;100.00
56604;BME280;42486;47.478;19.036;2023-06-22T05:32:01;100558.78;;;22.67;100.00
56604;BME280;42486;47.478;19.036;2023-06-22T05:35:04;100561.63;;;22.80;100.00
56604;BME280;42486;47.478;19.036;2023-06-22T05:38:07;100558.53;;;22.98;100.00
56604;BME280;42486;47.478;19.036;2023-06-22T05:41:10;100563.81;;;23.13;100.00
56604;BME280;42486;47.478;19.036;2023-06-22T05:44:14;100567.91;;;23.30;100.00
56604;BME280;42486;47.478;19.036;2023-06-22T05:47:17;100576.19;;;23.42;100.00
56604;BME280;42486;47.478;19.036;2023-06-22T05:50:22;100578.34;;;23.53;100.00
56604;BME280;42486;47.478;19.036;2023-06-22T05:53:25;100581.22;;;23.73;100.00
56604;BME280;42486;47.478;19.036;2023-06-22T05:56:29;100587.09;;;23.90;100.00
56604;BME280;42486;47.478;19.036;2023-06-22T05:59:33;100582.63;;;23.97;100.00
56604;BME280;42486;47.478;19.036;2023-06-22T06:02:40;100590.91;;;24.09;100.00
56604;BME280;42486;47.478;19.036;2023-06-22T06:05:48;100594.09;;;24.26;100.00
56604;BME280;42486;47.478;19.036;2023-06-22T06:08:54;100578.91;;;24.26;100.00
56604;BME280;42486;47.478;19.036;2023-06-22T06:11:57;100585.47;;;24.24;99.78
56604;BME280;42486;47.478;19.036;2023-06-22T06:15:00;100584.66;;;24.30;98.69
56604;BME280;42486;47.478;19.036;2023-06-22T06:18:05;100589.09;;;24.44;95.77
56604;BME280;42486;47.478;19.036;2023-06-22T06:21:09;100589.94;;;24.51;90.75
56604;BME280;42486;47.478;19.036;2023-06-22T06:24:11;100587.94;;;24.67;88.24
56604;BME280;42486;47.478;19.036;2023-06-22T06:27:14;100588.06;;;25.07;82.85
56604;BME280;42486;47.478;19.036;2023-06-22T06:30:18;100587.72;;;25.16;83.40
56604;BME280;42486;47.478;19.036;2023-06-22T06:33:21;100584.44;;;25.47;79.77
56604;BME280;42486;47.478;19.036;2023-06-22T06:36:27;100583.44;;;25.88;83.01
56604;BME280;42486;47.478;19.036;2023-06-22T06:39:30;100586.06;;;26.08;77.13
56604;BME280;42486;47.478;19.036;2023-06-22T06:42:32;100585.47;;;26.13;79.05
56604;BME280;42486;47.478;19.036;2023-06-22T06:45:35;100580.91;;;26.13;74.28
56604;BME280;42486;47.478;19.036;2023-06-22T06:48:38;100576.37;;;26.14;74.37
56604;BME280;42486;47.478;19.036;2023-06-22T06:51:42;100584.62;;;26.06;70.71
56604;BME280;42486;47.478;19.036;2023-06-22T06:54:45;100579.09;;;26.01;74.03
56604;BME280;42486;47.478;19.036;2023-06-22T06:57:48;100582.19;;;25.98;71.32
56604;BME280;42486;47.478;19.036;2023-06-22T07:00:52;100576.63;;;25.99;71.34
56604;BME280;42486;47.478;19.036;2023-06-22T07:03:55;100580.34;;;25.91;69.82
56604;BME280;42486;47.478;19.036;2023-06-22T07:06:58;100573.13;;;25.99;67.28
56604;BME280;42486;47.478;19.036;2023-06-22T07:10:02;100577.38;;;26.26;64.63
56604;BME280;42486;47.478;19.036;2023-06-22T07:13:07;100571.97;;;26.53;63.35
56604;BME280;42486;47.478;19.036;2023-06-22T07:16:10;100576.19;;;26.74;64.42
56604;BME280;42486;47.478;19.036;2023-06-22T07:19:12;100577.56;;;26.90;65.41
56604;BME280;42486;47.478;19.036;2023-06-22T07:22:15;100580.91;;;27.23;63.06
56604;BME280;42486;47.478;19.036;2023-06-22T07:25:18;100584.97;;;27.83;61.90
56604;BME280;42486;47.478;19.036;2023-06-22T07:28:20;100580.53;;;29.41;55.02
56604;BME280;42486;47.478;19.036;2023-06-22T07:31:24;100582.75;;;30.50;52.03
56604;BME280;42486;47.478;19.036;2023-06-22T07:34:27;100590.47;;;31.15;51.89
56604;BME280;42486;47.478;19.036;2023-06-22T07:37:30;100596.69;;;33.10;47.10
56604;BME280;42486;47.478;19.036;2023-06-22T07:40:34;100594.47;;;34.77;40.60
56604;BME280;42486;47.478;19.036;2023-06-22T07:43:39;100600.53;;;35.41;38.32
56604;BME280;42486;47.478;19.036;2023-06-22T07:46:42;100602.22;;;36.48;34.09
56604;BME280;42486;47.478;19.036;2023-06-22T07:49:47;100596.28;;;36.90;35.39
56604;BME280;42486;47.478;19.036;2023-06-22T07:52:50;100600.28;;;37.96;33.83
56604;BME280;42486;47.478;19.036;2023-06-22T07:55:55;100601.47;;;38.57;32.73
56604;BME280;42486;47.478;19.036;2023-06-22T07:58:59;100601.81;;;38.07;33.65
56604;BME280;42486;47.478;19.036;2023-06-22T08:02:04;100593.03;;;37.86;32.88
56604;BME280;42486;47.478;19.036;2023-06-22T08:05:09;100585.94;;;36.32;35.50
56604;BME280;42486;47.478;19.036;2023-06-22T08:08:23;100587.13;;;34.78;40.82
56604;BME280;42486;47.478;19.036;2023-06-22T08:11:27;100578.25;;;35.59;38.42
56604;BME280;42486;47.478;19.036;2023-06-22T08:14:29;100588.28;;;36.59;35.91
56604;BME280;42486;47.478;19.036;2023-06-22T08:17:33;100585.56;;;37.04;32.63
56604;BME280;42486;47.478;19.036;2023-06-22T08:20:36;100578.00;;;35.30;36.66
56604;BME280;42486;47.478;19.036;2023-06-22T08:23:39;100583.50;;;36.86;34.68
56604;BME280;42486;47.478;19.036;2023-06-22T08:26:42;100586.44;;;37.87;33.10
56604;BME280;42486;47.478;19.036;2023-06-22T08:29:47;100580.94;;;37.34;32.97
56604;BME280;42486;47.478;19.036;2023-06-22T08:32:52;100581.53;;;37.31;34.53
56604;BME280;42486;47.478;19.036;2023-06-22T08:35:57;100576.84;;;35.77;36.94
56604;BME280;42486;47.478;19.036;2023-06-22T08:39:00;100574.00;;;34.44;38.33
56604;BME280;42486;47.478;19.036;2023-06-22T08:42:05;100560.22;;;32.91;42.21
56604;BME280;42486;47.478;19.036;2023-06-22T08:45:08;100565.75;;;33.01;45.50
56604;BME280;42486;47.478;19.036;2023-06-22T08:48:11;100547.56;;;32.03;45.24
56604;BME280;42486;47.478;19.036;2023-06-22T08:51:15;100553.22;;;31.85;47.42
56604;BME280;42486;47.478;19.036;2023-06-22T08:54:17;100555.69;;;31.87;49.53
56604;BME280;42486;47.478;19.036;2023-06-22T08:57:21;100539.88;;;31.95;47.01
56604;BME280;42486;47.478;19.036;2023-06-22T09:00:24;100541.87;;;31.66;48.95
56604;BME280;42486;47.478;19.036;2023-06-22T09:03:26;100541.69;;;31.90;48.92
56604;BME280;42486;47.478;19.036;2023-06-22T09:06:31;100542.72;;;32.06;48.41
56604;BME280;42486;47.478;19.036;2023-06-22T09:09:35;100532.84;;;31.77;46.06
56604;BME280;42486;47.478;19.036;2023-06-22T09:12:38;100534.72;;;31.55;47.24
56604;BME280;42486;47.478;19.036;2023-06-22T09:15:43;100532.31;;;31.08;52.52
56604;BME280;42486;47.478;19.036;2023-06-22T09:18:48;100536.75;;;31.48;48.43
56604;BME280;42486;47.478;19.036;2023-06-22T09:21:51;100519.63;;;30.80;50.49
56604;BME280;42486;47.478;19.036;2023-06-22T09:24:53;100519.78;;;31.02;51.93
56604;BME280;42486;47.478;19.036;2023-06-22T09:27:56;100514.63;;;31.17;52.39
56604;BME280;42486;47.478;19.036;2023-06-22T09:30:59;100526.81;;;31.20;50.58
56604;BME280;42486;47.478;19.036;2023-06-22T09:34:02;100517.25;;;30.95;51.00
56604;BME280;42486;47.478;19.036;2023-06-22T09:37:05;100518.56;;;31.09;48.66
56604;BME280;42486;47.478;19.036;2023-06-22T09:40:08;100511.78;;;31.07;51.08
56604;BME280;42486;47.478;19.036;2023-06-22T09:43:13;100509.41;;;31.10;50.27
56604;BME280;42486;47.478;19.036;2023-06-22T09:46:16;100509.66;;;31.26;49.40
56604;BME280;42486;47.478;19.036;2023-06-22T09:49:19;100510.72;;;31.08;53.63
56604;BME280;42486;47.478;19.036;2023-06-22T09:52:41;100505.78;;;31.22;52.36
56604;BME280;42486;47.478;19.036;2023-06-22T09:55:49;100504.53;;;31.41;50.77
56604;BME280;42486;47.478;19.036;2023-06-22T09:58:51;100507.69;;;31.55;52.22
56604;BME280;42486;47.478;19.036;2023-06-22T10:01:56;100506.38;;;31.24;49.40
56604;BME280;42486;47.478;19.036;2023-06-22T10:04:59;100512.19;;;31.32;51.58
56604;BME280;42486;47.478;19.036;2023-06-22T10:08:02;100509.81;;;31.53;50.22
56604;BME280;42486;47.478;19.036;2023-06-22T10:11:04;100509.84;;;31.75;48.92
56604;BME280;42486;47.478;19.036;2023-06-22T10:14:07;100500.41;;;31.94;49.97
56604;BME280;42486;47.478;19.036;2023-06-22T10:17:10;100503.94;;;32.17;49.90
56604;BME280;42486;47.478;19.036;2023-06-22T10:20:13;100507.06;;;32.31;48.80
56604;BME280;42486;47.478;19.036;2023-06-22T10:23:17;100505.53;;;32.18;49.01
56604;BME280;42486;47.478;19.036;2023-06-22T10:26:20;100497.34;;;31.91;48.27
56604;BME280;42486;47.478;19.036;2023-06-22T10:29:22;100492.38;;;31.83;49.57
56604;BME280;42486;47.478;19.036;2023-06-22T10:32:24;100491.53;;;31.99;47.59
56604;BME280;42486;47.478;19.036;2023-06-22T10:35:27;100492.44;;;31.88;49.34
56604;BME280;42486;47.478;19.036;2023-06-22T10:38:33;100489.84;;;32.15;48.54
56604;BME280;42486;47.478;19.036;2023-06-22T10:41:35;100492.88;;;32.18;47.42
56604;BME280;42486;47.478;19.036;2023-06-22T10:44:38;100479.28;;;32.13;52.07
56604;BME280;42486;47.478;19.036;2023-06-22T10:47:43;100482.69;;;32.53;50.57
56604;BME280;42486;47.478;19.036;2023-06-22T10:50:47;100481.00;;;32.74;47.73
56604;BME280;42486;47.478;19.036;2023-06-22T10:53:50;100479.25;;;32.89;47.11
56604;BME280;42486;47.478;19.036;2023-06-22T10:56:53;100481.09;;;33.16;48.06
56604;BME280;42486;47.478;19.036;2023-06-22T10:59:56;100476.53;;;33.22;44.91
56604;BME280;42486;47.478;19.036;2023-06-22T11:03:00;100475.19;;;32.92;45.41
56604;BME280;42486;47.478;19.036;2023-06-22T11:06:04;100472.94;;;32.79;47.62
56604;BME280;42486;47.478;19.036;2023-06-22T11:09:07;100472.94;;;33.11;46.98
56604;BME280;42486;47.478;19.036;2023-06-22T11:12:27;100469.78;;;32.92;45.81
56604;BME280;42486;47.478;19.036;2023-06-22T11:15:30;100470.34;;;32.62;46.71
56604;BME280;42486;47.478;19.036;2023-06-22T11:18:33;100461.91;;;32.85;45.54
56604;BME280;42486;47.478;19.036;2023-06-22T11:21:36;100467.13;;;32.97;46.50
56604;BME280;42486;47.478;19.036;2023-06-22T11:24:38;100468.31;;;33.06;44.17
56604;BME280;42486;47.478;19.036;2023-06-22T11:27:42;100453.97;;;32.79;47.83
56604;BME280;42486;47.478;19.036;2023-06-22T11:30:45;100455.34;;;32.81;44.58
56604;BME280;42486;47.478;19.036;2023-06-22T11:33:49;100458.91;;;33.19;47.44
56604;BME280;42486;47.478;19.036;2023-06-22T11:36:51;100454.88;;;33.22;44.51
56604;BME280;42486;47.478;19.036;2023-06-22T11:39:55;100461.72;;;33.34;43.10
56604;BME280;42486;47.478;19.036;2023-06-22T11:43:07;100455.62;;;33.12;44.74
56604;BME280;42486;47.478;19.036;2023-06-22T11:46:10;100458.16;;;33.29;43.51
56604;BME280;42486;47.478;19.036;2023-06-22T11:49:12;100447.47;;;33.49;46.80
56604;BME280;42486;47.478;19.036;2023-06-22T11:52:15;100453.50;;;33.57;42.84
56604;BME280;42486;47.478;19.036;2023-06-22T11:55:19;100451.38;;;33.69;43.27
56604;BME280;42486;47.478;19.036;2023-06-22T11:58:22;100456.25;;;33.72;42.51
56604;BME280;42486;47.478;19.036;2023-06-22T12:01:25;100454.81;;;33.11;42.89
56604;BME280;42486;47.478;19.036;2023-06-22T12:04:28;100445.69;;;32.90;44.46
56604;BME280;42486;47.478;19.036;2023-06-22T12:07:30;100446.28;;;32.65;47.07
56604;BME280;42486;47.478;19.036;2023-06-22T12:10:33;100448.34;;;33.18;44.74
56604;BME280;42486;47.478;19.036;2023-06-22T12:13:36;100441.97;;;33.39;43.71
56604;BME280;42486;47.478;19.036;2023-06-22T12:16:38;100437.34;;;33.34;43.30
56604;BME280;42486;47.478;19.036;2023-06-22T12:19:41;100428.50;;;33.49;40.36
56604;BME280;42486;47.478;19.036;2023-06-22T12:22:44;100419.13;;;33.20;41.87
56604;BME280;42486;47.478;19.036;2023-06-22T12:25:47;100411.56;;;33.27;43.25
56604;BME280;42486;47.478;19.036;2023-06-22T12:28:49;100416.41;;;33.62;41.46
56604;BME280;42486;47.478;19.036;2023-06-22T12:31:52;100415.56;;;33.62;40.05
56604;BME280;42486;47.478;19.036;2023-06-22T12:34:55;100410.06;;;33.46;42.48
56604;BME280;42486;47.478;19.036;2023-06-22T12:37:58;100415.22;;;33.53;42.26
56604;BME280;42486;47.478;19.036;2023-06-22T12:41:00;100408.34;;;33.35;41.81
56604;BME280;42486;47.478;19.036;2023-06-22T12:44:04;100409.34;;;33.66;41.51
56604;BME280;42486;47.478;19.036;2023-06-22T12:47:06;100404.22;;;33.70;43.07
56604;BME280;42486;47.478;19.036;2023-06-22T12:50:10;100408.84;;;33.80;40.92
56604;BME280;42486;47.478;19.036;2023-06-22T12:53:13;100406.41;;;33.73;40.20
56604;BME280;42486;47.478;19.036;2023-06-22T12:56:16;100401.22;;;33.71;41.26
56604;BME280;42486;47.478;19.036;2023-06-22T12:59:18;100395.66;;;33.36;39.91
56604;BME280;42486;47.478;19.036;2023-06-22T13:02:21;100391.81;;;33.31;40.74
56604;BME280;42486;47.478;19.036;2023-06-22T13:05:24;100390.06;;;33.10;39.58
56604;BME280;42486;47.478;19.036;2023-06-22T13:08:27;100387.75;;;33.29;41.25
56604;BME280;42486;47.478;19.036;2023-06-22T13:11:36;100382.69;;;33.48;40.88
56604;BME280;42486;47.478;19.036;2023-06-22T13:14:38;100379.78;;;33.60;39.65
56604;BME280;42486;47.478;19.036;2023-06-22T13:17:41;100378.47;;;33.77;41.51
56604;BME280;42486;47.478;19.036;2023-06-22T13:20:44;100374.91;;;33.57;40.90
56604;BME280;42486;47.478;19.036;2023-06-22T13:23:47;100370.84;;;33.64;39.37
56604;BME280;42486;47.478;19.036;2023-06-22T13:26:50;100368.38;;;33.05;41.25
56604;BME280;42486;47.478;19.036;2023-06-22T13:29:54;100366.53;;;33.16;41.34
56604;BME280;42486;47.478;19.036;2023-06-22T13:32:57;100370.19;;;33.42;43.49
56604;BME280;42486;47.478;19.036;2023-06-22T13:36:00;100360.81;;;33.54;42.93
56604;BME280;42486;47.478;19.036;2023-06-22T13:39:05;100364.09;;;33.67;43.13
56604;BME280;42486;47.478;19.036;2023-06-22T13:42:08;100362.13;;;33.52;42.70
56604;BME280;42486;47.478;19.036;2023-06-22T13:45:10;100354.16;;;33.25;42.94
56604;BME280;42486;47.478;19.036;2023-06-22T13:48:13;100352.87;;;33.48;44.33
56604;BME280;42486;47.478;19.036;2023-06-22T13:51:16;100350.72;;;33.50;41.67
56604;BME280;42486;47.478;19.036;2023-06-22T13:54:19;100352.59;;;33.39;42.98
56604;BME280;42486;47.478;19.036;2023-06-22T13:57:25;100350.72;;;33.50;42.99
56604;BME280;42486;47.478;19.036;2023-06-22T14:00:27;100345.78;;;33.37;44.44
56604;BME280;42486;47.478;19.036;2023-06-22T14:03:31;100347.94;;;33.34;43.33
56604;BME280;42486;47.478;19.036;2023-06-22T14:06:33;100347.16;;;33.39;42.33
56604;BME280;42486;47.478;19.036;2023-06-22T14:09:36;100347.47;;;33.00;43.88
56604;BME280;42486;47.478;19.036;2023-06-22T14:12:38;100332.94;;;33.06;44.74
56604;BME280;42486;47.478;19.036;2023-06-22T14:15:41;100340.16;;;32.96;45.59
56604;BME280;42486;47.478;19.036;2023-06-22T14:18:46;100338.53;;;33.00;43.58
56604;BME280;42486;47.478;19.036;2023-06-22T14:21:49;100330.19;;;33.01;44.21
56604;BME280;42486;47.478;19.036;2023-06-22T14:24:52;100323.62;;;32.97;46.63
56604;BME280;42486;47.478;19.036;2023-06-22T14:27:55;100322.94;;;33.12;45.16
56604;BME280;42486;47.478;19.036;2023-06-22T14:30:58;100320.19;;;33.02;44.34
56604;BME280;42486;47.478;19.036;2023-06-22T14:34:01;100318.78;;;32.99;45.25
56604;BME280;42486;47.478;19.036;2023-06-22T14:37:07;100310.16;;;33.02;43.27
56604;BME280;42486;47.478;19.036;2023-06-22T14:40:11;100310.00;;;32.77;45.77
56604;BME280;42486;47.478;19.036;2023-06-22T14:43:14;100301.53;;;32.68;44.75
56604;BME280;42486;47.478;19.036;2023-06-22T14:46:17;100296.62;;;32.60;46.49
56604;BME280;42486;47.478;19.036;2023-06-22T14:49:21;100300.69;;;32.62;45.74
56604;BME280;42486;47.478;19.036;2023-06-22T14:52:23;100310.00;;;32.77;45.82
56604;BME280;42486;47.478;19.036;2023-06-22T14:55:26;100304.63;;;32.87;45.22
56604;BME280;42486;47.478;19.036;2023-06-22T14:58:32;100307.31;;;32.77;45.07
56604;BME280;42486;47.478;19.036;2023-06-22T15:01:35;100301.91;;;32.87;46.30
56604;BME280;42486;47.478;19.036;2023-06-22T15:04:39;100299.75;;;32.84;46.73
56604;BME280;42486;47.478;19.036;2023-06-22T15:07:42;100293.97;;;32.70;47.29
56604;BME280;42486;47.478;19.036;2023-06-22T15:10:44;100288.25;;;32.61;44.96
56604;BME280;42486;47.478;19.036;2023-06-22T15:13:47;100284.91;;;32.49;45.54
56604;BME280;42486;47.478;19.036;2023-06-22T15:16:49;100276.47;;;32.45;45.62
56604;BME280;42486;47.478;19.036;2023-06-22T15:19:51;100277.91;;;32.53;44.77
56604;BME280;42486;47.478;19.036;2023-06-22T15:22:54;100260.38;;;32.23;46.97
56604;BME280;42486;47.478;19.036;2023-06-22T15:25:57;100268.81;;;32.32;47.22
56604;BME280;42486;47.478;19.036;2023-06-22T15:28:59;100265.34;;;32.42;46.53
56604;BME280;42486;47.478;19.036;2023-06-22T15:32:02;100266.91;;;32.33;45.39
56604;BME280;42486;47.478;19.036;2023-06-22T15:35:05;100273.91;;;32.29;46.68
56604;BME280;42486;47.478;19.036;2023-06-22T15:38:07;100272.56;;;32.31;48.09
56604;BME280;42486;47.478;19.036;2023-06-22T15:41:09;100271.56;;;32.37;46.54
56604;BME280;42486;47.478;19.036;2023-06-22T15:44:12;100272.66;;;32.41;47.42
56604;BME280;42486;47.478;19.036;2023-06-22T15:47:15;100274.22;;;32.32;48.00
56604;BME280;42486;47.478;19.036;2023-06-22T15:50:19;100265.03;;;32.33;47.74
56604;BME280;42486;47.478;19.036;2023-06-22T15:53:21;100273.91;;;32.29;48.10